sensor_id;sensor_type;location;lat;lon;timestamp;pressure;altitude;pressure_sealevel;temperature;humidity
32243;BME280;18731;42.830;24.390;2023-08-31T03:00:41;94065.16;;;18.17;83.19
32243;BME280;18731;42.830;24.390;2023-08-31T03:03:08;94066.72;;;18.18;83.38
32243;BME280;18731;42.830;24.390;2023-08-31T03:05:34;94065.16;;;18.17;83.16
32243;BME280;18731;42.830;24.390;2023-08-31T03:07:59;94065.94;;;18.14;83.03
32243;BME280;18731;42.830;24.390;2023-08-31T03:10:25;94078.31;;;18.22;83.35
32243;BME280;18731;42.830;24.390;2023-08-31T03:12:50;94068.66;;;18.21;83.05
32243;BME280;18731;42.830;24.390;2023-08-31T03:15:16;94060.53;;;18.14;83.02
32243;BME280;18731;42.830;24.390;2023-08-31T03:17:42;94072.13;;;18.25;82.91
32243;BME280;18731;42.830;24.390;2023-08-31T03:20:08;94080.25;;;18.25;82.91
32243;BME280;18731;42.830;24.390;2023-08-31T03:22:35;94081.78;;;18.26;83.11
32243;BME280;18731;42.830;24.390;2023-08-31T03:25:00;94082.94;;;18.28;82.77
32243;BME280;18731;42.830;24.390;2023-08-31T03:27:26;94063.22;;;18.14;82.84
32243;BME280;18731;42.830;24.390;2023-08-31T03:29:51;94092.97;;;18.28;82.77
32243;BME280;18731;42.830;24.390;2023-08-31T03:32:18;94098.00;;;18.29;82.41
32243;BME280;18731;42.830;24.390;2023-08-31T03:34:44;94101.09;;;18.31;82.29
32243;BME280;18731;42.830;24.390;2023-08-31T03:37:10;94102.22;;;18.20;82.92
32243;BME280;18731;42.830;24.390;2023-08-31T03:39:36;94107.63;;;18.20;83.47
32243;BME280;18731;42.830;24.390;2023-08-31T03:42:02;94096.41;;;18.18;83.60
32243;BME280;18731;42.830;24.390;2023-08-31T03:44:28;94106.09;;;18.22;83.51
32243;BME280;18731;42.830;24.390;2023-08-31T03:46:54;94113.03;;;18.23;83.64
32243;BME280;18731;42.830;24.390;2023-08-31T03:49:19;94092.94;;;18.17;83.29
32243;BME280;18731;42.830;24.390;2023-08-31T03:51:45;94114.59;;;18.21;83.76
32243;BME280;18731;42.830;24.390;2023-08-31T03:54:10;94118.84;;;18.22;83.65
32243;BME280;18731;42.830;24.390;2023-08-31T03:56:38;94124.63;;;18.24;83.69
32243;BME280;18731;42.830;24.390;2023-08-31T03:59:04;94116.53;;;18.20;84.17
32243;BME280;18731;42.830;24.390;2023-08-31T04:01:30;94120.72;;;18.11;84.78
32243;BME280;18731;42.830;24.390;2023-08-31T04:03:56;94119.94;;;18.14;85.24
32243;BME280;18731;42.830;24.390;2023-08-31T04:06:21;94127.69;;;18.19;85.03
32243;BME280;18731;42.830;24.390;2023-08-31T04:08:47;94123.47;;;18.25;85.13
32243;BME280;18731;42.830;24.390;2023-08-31T04:11:12;94121.91;;;18.24;85.62
32243;BME280;18731;42.830;24.390;2023-08-31T04:13:38;94123.06;;;18.23;85.42
32243;BME280;18731;42.830;24.390;2023-08-31T04:16:04;94133.88;;;18.23;86.12
32243;BME280;18731;42.830;24.390;2023-08-31T04:18:29;94134.63;;;18.20;86.74
32243;BME280;18731;42.830;24.390;2023-08-31T04:20:55;94144.69;;;18.26;86.67
32243;BME280;18731;42.830;24.390;2023-08-31T04:23:21;94147.00;;;18.31;86.76
32243;BME280;18731;42.830;24.390;2023-08-31T04:25:47;94145.09;;;18.36;86.61
32243;BME280;18731;42.830;24.390;2023-08-31T04:28:13;94155.88;;;18.36;86.80
32243;BME280;18731;42.830;24.390;2023-08-31T04:30:40;94136.19;;;18.31;86.04
32243;BME280;18731;42.830;24.390;2023-08-31T04:33:06;94147.78;;;18.32;85.72
32243;BME280;18731;42.830;24.390;2023-08-31T04:35:32;94159.38;;;18.47;85.51
32243;BME280;18731;42.830;24.390;2023-08-31T04:37:58;94167.09;;;18.45;86.11
32243;BME280;18731;42.830;24.390;2023-08-31T04:40:24;94172.50;;;18.45;86.23
32243;BME280;18731;42.830;24.390;2023-08-31T04:42:50;94169.41;;;18.46;86.04
32243;BME280;18731;42.830;24.390;2023-08-31T04:45:16;94179.44;;;18.53;86.00
32243;BME280;18731;42.830;24.390;2023-08-31T04:47:42;94179.84;;;18.58;85.46
32243;BME280;18731;42.830;24.390;2023-08-31T04:50:08;94182.97;;;18.64;85.40
32243;BME280;18731;42.830;24.390;2023-08-31T04:52:34;94186.00;;;18.55;85.18
32243;BME280;18731;42.830;24.390;2023-08-31T04:55:05;94181.78;;;18.54;85.71
32243;BME280;18731;42.830;24.390;2023-08-31T04:57:33;94176.38;;;18.58;85.21
32243;BME280;18731;42.830;24.390;2023-08-31T04:59:59;94187.97;;;18.69;85.46
32243;BME280;18731;42.830;24.390;2023-08-31T05:02:24;94185.66;;;18.68;85.55
32243;BME280;18731;42.830;24.390;2023-08-31T05:04:50;94187.22;;;18.61;85.47
32243;BME280;18731;42.830;24.390;2023-08-31T05:07:16;94203.44;;;18.79;85.17
32243;BME280;18731;42.830;24.390;2023-08-31T05:09:42;94201.09;;;18.81;85.06
32243;BME280;18731;42.830;24.390;2023-08-31T05:12:07;94199.56;;;18.94;85.06
32243;BME280;18731;42.830;24.390;2023-08-31T05:14:33;94201.09;;;18.99;85.20
32243;BME280;18731;42.830;24.390;2023-08-31T05:17:03;94201.09;;;19.06;85.40
32243;BME280;18731;42.830;24.390;2023-08-31T05:19:30;94198.00;;;19.11;84.57
32243;BME280;18731;42.830;24.390;2023-08-31T05:21:55;94201.06;;;19.24;83.87
32243;BME280;18731;42.830;24.390;2023-08-31T05:24:21;94196.03;;;19.26;83.69
32243;BME280;18731;42.830;24.390;2023-08-31T05:26:47;94201.44;;;19.37;83.73
32243;BME280;18731;42.830;24.390;2023-08-31T05:29:12;94191.38;;;19.41;83.13
32243;BME280;18731;42.830;24.390;2023-08-31T05:31:38;94195.19;;;19.50;82.52
32243;BME280;18731;42.830;24.390;2023-08-31T05:34:03;94194.06;;;19.55;82.37
32243;BME280;18731;42.830;24.390;2023-08-31T05:36:29;94193.25;;;19.65;81.35
32243;BME280;18731;42.830;24.390;2023-08-31T05:38:54;94197.81;;;19.82;81.20
32243;BME280;18731;42.830;24.390;2023-08-31T05:41:20;94192.34;;;19.97;80.77
32243;BME280;18731;42.830;24.390;2023-08-31T05:43:46;94200.41;;;20.07;80.25
32243;BME280;18731;42.830;24.390;2023-08-31T05:46:11;94201.88;;;20.22;80.56
32243;BME280;18731;42.830;24.390;2023-08-31T05:48:37;94201.44;;;20.31;78.95
32243;BME280;18731;42.830;24.390;2023-08-31T05:51:03;94207.59;;;20.42;77.54
32243;BME280;18731;42.830;24.390;2023-08-31T05:53:31;94209.13;;;20.47;77.25
32243;BME280;18731;42.830;24.390;2023-08-31T05:55:58;94204.03;;;20.56;77.82
32243;BME280;18731;42.830;24.390;2023-08-31T05:58:33;94207.44;;;20.67;77.32
32243;BME280;18731;42.830;24.390;2023-08-31T06:01:00;94206.97;;;20.79;77.56
32243;BME280;18731;42.830;24.390;2023-08-31T06:03:26;94186.81;;;20.84;77.97
32243;BME280;18731;42.830;24.390;2023-08-31T06:05:53;94207.88;;;21.10;78.04
32243;BME280;18731;42.830;24.390;2023-08-31T06:08:18;94195.38;;;21.24;78.17
32243;BME280;18731;42.830;24.390;2023-08-31T06:10:44;94189.09;;;21.34;78.16
32243;BME280;18731;42.830;24.390;2023-08-31T06:13:09;94199.84;;;21.44;77.70
32243;BME280;18731;42.830;24.390;2023-08-31T06:15:35;94192.75;;;21.54;77.00
32243;BME280;18731;42.830;24.390;2023-08-31T06:18:01;94193.66;;;21.78;76.47
32243;BME280;18731;42.830;24.390;2023-08-31T06:20:26;94185.22;;;21.99;73.78
32243;BME280;18731;42.830;24.390;2023-08-31T06:22:52;94202.63;;;22.36;72.63
32243;BME280;18731;42.830;24.390;2023-08-31T06:25:17;94197.00;;;22.50;71.68
32243;BME280;18731;42.830;24.390;2023-08-31T06:27:44;94195.50;;;22.72;70.81
32243;BME280;18731;42.830;24.390;2023-08-31T06:30:10;94207.44;;;23.05;68.27
32243;BME280;18731;42.830;24.390;2023-08-31T06:32:43;94206.59;;;23.08;66.00
32243;BME280;18731;42.830;24.390;2023-08-31T06:35:13;94211.34;;;23.28;64.74
32243;BME280;18731;42.830;24.390;2023-08-31T06:37:41;94195.97;;;23.41;65.82
32243;BME280;18731;42.830;24.390;2023-08-31T06:40:07;94199.59;;;23.78;64.01
32243;BME280;18731;42.830;24.390;2023-08-31T06:42:34;94140.88;;;23.53;60.23
32243;BME280;18731;42.830;24.390;2023-08-31T06:45:00;94205.63;;;24.25;60.00
32243;BME280;18731;42.830;24.390;2023-08-31T06:47:26;94208.66;;;24.30;60.40
32243;BME280;18731;42.830;24.390;2023-08-31T06:49:51;94198.66;;;24.60;59.33
32243;BME280;18731;42.830;24.390;2023-08-31T06:52:18;94194.63;;;25.00;59.91
32243;BME280;18731;42.830;24.390;2023-08-31T06:54:43;94205.88;;;25.19;58.19
32243;BME280;18731;42.830;24.390;2023-08-31T06:57:09;94204.06;;;25.28;57.80
32243;BME280;18731;42.830;24.390;2023-08-31T06:59:34;94204.66;;;25.36;57.04
32243;BME280;18731;42.830;24.390;2023-08-31T07:02:00;94191.53;;;25.60;54.89
32243;BME280;18731;42.830;24.390;2023-08-31T07:04:29;94183.88;;;25.84;52.65
32243;BME280;18731;42.830;24.390;2023-08-31T07:06:55;94194.72;;;26.16;51.75
32243;BME280;18731;42.830;24.390;2023-08-31T07:09:21;94210.22;;;26.36;49.74
32243;BME280;18731;42.830;24.390;2023-08-31T07:11:46;94212.31;;;26.57;44.93
32243;BME280;18731;42.830;24.390;2023-08-31T07:14:12;94213.63;;;26.65;43.65
32243;BME280;18731;42.830;24.390;2023-08-31T07:16:38;94211.88;;;26.46;44.66
32243;BME280;18731;42.830;24.390;2023-08-31T07:19:03;94212.63;;;26.34;42.35
32243;BME280;18731;42.830;24.390;2023-08-31T07:21:29;94214.34;;;25.99;44.15
32243;BME280;18731;42.830;24.390;2023-08-31T07:23:54;94216.03;;;25.80;44.07
32243;BME280;18731;42.830;24.390;2023-08-31T07:26:21;94230.56;;;26.06;44.92
32243;BME280;18731;42.830;24.390;2023-08-31T07:28:47;94202.81;;;26.20;45.55
32243;BME280;18731;42.830;24.390;2023-08-31T07:31:12;94215.00;;;26.32;45.40
32243;BME280;18731;42.830;24.390;2023-08-31T07:33:38;94209.47;;;26.61;43.85
32243;BME280;18731;42.830;24.390;2023-08-31T07:36:05;94211.09;;;26.58;43.14
32243;BME280;18731;42.830;24.390;2023-08-31T07:38:32;94213.41;;;26.85;42.31
32243;BME280;18731;42.830;24.390;2023-08-31T07:40:58;94211.44;;;27.11;43.18
32243;BME280;18731;42.830;24.390;2023-08-31T07:43:25;94214.50;;;26.87;44.30
32243;BME280;18731;42.830;24.390;2023-08-31T07:45:51;94223.38;;;26.91;42.42
32243;BME280;18731;42.830;24.390;2023-08-31T07:48:17;94206.06;;;27.07;40.80
32243;BME280;18731;42.830;24.390;2023-08-31T07:50:43;94220.63;;;26.91;40.10
32243;BME280;18731;42.830;24.390;2023-08-31T07:53:08;94218.13;;;27.10;40.71
32243;BME280;18731;42.830;24.390;2023-08-31T07:55:34;94210.44;;;27.17;40.13
32243;BME280;18731;42.830;24.390;2023-08-31T07:58:01;94211.50;;;27.33;41.08
32243;BME280;18731;42.830;24.390;2023-08-31T08:00:27;94213.63;;;27.16;40.95
32243;BME280;18731;42.830;24.390;2023-08-31T08:02:52;94213.22;;;27.52;41.46
32243;BME280;18731;42.830;24.390;2023-08-31T08:05:18;94214.97;;;27.46;39.48
32243;BME280;18731;42.830;24.390;2023-08-31T08:07:44;94202.94;;;27.78;38.72
32243;BME280;18731;42.830;24.390;2023-08-31T08:10:11;94216.72;;;28.09;38.78
32243;BME280;18731;42.830;24.390;2023-08-31T08:12:41;94216.25;;;28.23;38.08
32243;BME280;18731;42.830;24.390;2023-08-31T08:15:12;94213.16;;;28.21;37.29
32243;BME280;18731;42.830;24.390;2023-08-31T08:17:38;94208.28;;;28.47;37.21
32243;BME280;18731;42.830;24.390;2023-08-31T08:20:06;94205.84;;;28.71;36.15
32243;BME280;18731;42.830;24.390;2023-08-31T08:22:32;94207.47;;;28.90;37.11
32243;BME280;18731;42.830;24.390;2023-08-31T08:24:57;94210.41;;;29.05;35.44
32243;BME280;18731;42.830;24.390;2023-08-31T08:27:23;94217.06;;;28.86;36.04
32243;BME280;18731;42.830;24.390;2023-08-31T08:29:48;94212.66;;;28.35;36.57
32243;BME280;18731;42.830;24.390;2023-08-31T08:32:15;94214.63;;;28.13;36.98
32243;BME280;18731;42.830;24.390;2023-08-31T08:34:40;94216.59;;;28.12;36.97
32243;BME280;18731;42.830;24.390;2023-08-31T08:37:06;94220.69;;;27.86;37.44
32243;BME280;18731;42.830;24.390;2023-08-31T08:39:31;94219.22;;;27.60;37.09
32243;BME280;18731;42.830;24.390;2023-08-31T08:42:04;94203.38;;;27.42;37.42
32243;BME280;18731;42.830;24.390;2023-08-31T08:44:32;94215.13;;;27.30;37.20
32243;BME280;18731;42.830;24.390;2023-08-31T08:46:59;94211.38;;;27.36;37.29
32243;BME280;18731;42.830;24.390;2023-08-31T08:49:26;94196.53;;;27.12;37.23
32243;BME280;18731;42.830;24.390;2023-08-31T08:51:52;94212.06;;;27.28;37.88
32243;BME280;18731;42.830;24.390;2023-08-31T08:54:18;94214.41;;;27.04;39.46
32243;BME280;18731;42.830;24.390;2023-08-31T08:56:45;94214.50;;;27.13;39.04
32243;BME280;18731;42.830;24.390;2023-08-31T08:59:11;94201.16;;;27.02;38.02
32243;BME280;18731;42.830;24.390;2023-08-31T09:01:39;94214.50;;;27.13;39.16
32243;BME280;18731;42.830;24.390;2023-08-31T09:04:04;94216.78;;;27.27;37.67
32243;BME280;18731;42.830;24.390;2023-08-31T09:06:30;94211.97;;;27.66;38.08
32243;BME280;18731;42.830;24.390;2023-08-31T09:08:56;94208.03;;;27.67;38.48
32243;BME280;18731;42.830;24.390;2023-08-31T09:11:22;94203.28;;;27.33;37.96
32243;BME280;18731;42.830;24.390;2023-08-31T09:13:49;94205.84;;;27.62;36.71
32243;BME280;18731;42.830;24.390;2023-08-31T09:16:28;94206.94;;;27.64;38.79
32243;BME280;18731;42.830;24.390;2023-08-31T09:18:58;94207.47;;;27.59;37.54
32243;BME280;18731;42.830;24.390;2023-08-31T09:21:37;94203.78;;;27.06;38.58
32243;BME280;18731;42.830;24.390;2023-08-31T09:24:05;94203.00;;;26.92;38.79
32243;BME280;18731;42.830;24.390;2023-08-31T09:26:40;94204.66;;;26.77;38.93
32243;BME280;18731;42.830;24.390;2023-08-31T09:29:08;94197.19;;;26.52;39.29
32243;BME280;18731;42.830;24.390;2023-08-31T09:31:34;94187.78;;;26.41;40.00
32243;BME280;18731;42.830;24.390;2023-08-31T09:34:00;94208.91;;;26.53;40.44
32243;BME280;18731;42.830;24.390;2023-08-31T09:36:26;94202.56;;;26.56;39.54
32243;BME280;18731;42.830;24.390;2023-08-31T09:38:57;94209.78;;;26.50;40.92
32243;BME280;18731;42.830;24.390;2023-08-31T09:41:23;94198.72;;;26.66;38.94
32243;BME280;18731;42.830;24.390;2023-08-31T09:43:49;94183.84;;;26.67;38.55
32243;BME280;18731;42.830;24.390;2023-08-31T09:46:14;94198.72;;;26.91;37.99
32243;BME280;18731;42.830;24.390;2023-08-31T09:48:42;94201.91;;;27.03;40.82
32243;BME280;18731;42.830;24.390;2023-08-31T09:51:09;94203.44;;;26.91;35.82
32243;BME280;18731;42.830;24.390;2023-08-31T09:53:36;94204.31;;;26.88;36.57
32243;BME280;18731;42.830;24.390;2023-08-31T09:56:05;94200.47;;;27.23;37.62
32243;BME280;18731;42.830;24.390;2023-08-31T09:58:31;94201.03;;;27.53;36.48
32243;BME280;18731;42.830;24.390;2023-08-31T10:00:58;94207.19;;;27.44;35.89
32243;BME280;18731;42.830;24.390;2023-08-31T10:03:26;94208.72;;;27.45;36.72
32243;BME280;18731;42.830;24.390;2023-08-31T10:05:53;94202.59;;;27.41;35.77
32243;BME280;18731;42.830;24.390;2023-08-31T10:08:20;94211.28;;;27.40;36.56
32243;BME280;18731;42.830;24.390;2023-08-31T10:10:46;94211.00;;;27.12;37.78
32243;BME280;18731;42.830;24.390;2023-08-31T10:13:12;94213.84;;;27.09;36.85
32243;BME280;18731;42.830;24.390;2023-08-31T10:15:38;94209.69;;;26.91;37.81
32243;BME280;18731;42.830;24.390;2023-08-31T10:18:06;94215.16;;;27.17;37.72
32243;BME280;18731;42.830;24.390;2023-08-31T10:20:33;94212.44;;;27.51;37.57
32243;BME280;18731;42.830;24.390;2023-08-31T10:23:04;94213.53;;;27.89;36.47
32243;BME280;18731;42.830;24.390;2023-08-31T10:28:22;94213.63;;;28.72;34.29
32243;BME280;18731;42.830;24.390;2023-08-31T10:33:44;94209.50;;;29.08;32.80
32243;BME280;18731;42.830;24.390;2023-08-31T10:36:14;94203.44;;;28.82;33.23
32243;BME280;18731;42.830;24.390;2023-08-31T10:38:42;94214.88;;;29.21;32.20
32243;BME280;18731;42.830;24.390;2023-08-31T10:43:48;94217.31;;;28.78;32.64
32243;BME280;18731;42.830;24.390;2023-08-31T10:46:24;94220.66;;;28.52;33.87
32243;BME280;18731;42.830;24.390;2023-08-31T10:48:53;94220.66;;;28.52;34.20
32243;BME280;18731;42.830;24.390;2023-08-31T10:51:25;94225.25;;;28.24;34.51
32243;BME280;18731;42.830;24.390;2023-08-31T10:53:50;94225.59;;;28.13;34.66
32243;BME280;18731;42.830;24.390;2023-08-31T10:56:17;94231.69;;;28.30;34.79
32243;BME280;18731;42.830;24.390;2023-08-31T10:58:55;94226.44;;;28.44;34.34
32243;BME280;18731;42.830;24.390;2023-08-31T11:01:53;94226.06;;;28.33;34.50
32243;BME280;18731;42.830;24.390;2023-08-31T11:04:26;94228.34;;;28.13;34.81
32243;BME280;18731;42.830;24.390;2023-08-31T11:09:42;94224.88;;;27.78;36.38
32243;BME280;18731;42.830;24.390;2023-08-31T11:12:08;94233.59;;;27.51;35.85
32243;BME280;18731;42.830;24.390;2023-08-31T11:14:34;94226.31;;;27.35;36.59
32243;BME280;18731;42.830;24.390;2023-08-31T11:17:00;94236.75;;;27.75;37.87
32243;BME280;18731;42.830;24.390;2023-08-31T11:19:27;94221.44;;;28.08;36.72
32243;BME280;18731;42.830;24.390;2023-08-31T11:21:54;94227.50;;;28.03;34.81
32243;BME280;18731;42.830;24.390;2023-08-31T11:24:20;94227.22;;;28.23;33.58
32243;BME280;18731;42.830;24.390;2023-08-31T11:26:50;94212.00;;;28.09;34.18
32243;BME280;18731;42.830;24.390;2023-08-31T11:29:16;94224.56;;;28.19;35.07
32243;BME280;18731;42.830;24.390;2023-08-31T11:31:42;94212.31;;;28.11;35.59
32243;BME280;18731;42.830;24.390;2023-08-31T11:34:16;94219.03;;;28.10;36.74
32243;BME280;18731;42.830;24.390;2023-08-31T11:36:43;94213.34;;;28.05;35.36
32243;BME280;18731;42.830;24.390;2023-08-31T11:39:10;94220.94;;;28.01;35.97
32243;BME280;18731;42.830;24.390;2023-08-31T11:41:36;94216.72;;;27.87;34.75
32243;BME280;18731;42.830;24.390;2023-08-31T11:44:11;94217.63;;;27.84;37.85
32243;BME280;18731;42.830;24.390;2023-08-31T11:46:39;94218.06;;;27.82;40.94
32243;BME280;18731;42.830;24.390;2023-08-31T11:49:06;94221.41;;;27.65;43.75
32243;BME280;18731;42.830;24.390;2023-08-31T11:51:33;94217.59;;;27.62;43.96
32243;BME280;18731;42.830;24.390;2023-08-31T11:54:02;94221.22;;;27.46;42.87
32243;BME280;18731;42.830;24.390;2023-08-31T11:56:47;94222.59;;;27.29;45.64
32243;BME280;18731;42.830;24.390;2023-08-31T11:59:17;94213.75;;;27.12;44.45
32243;BME280;18731;42.830;24.390;2023-08-31T12:01:45;94220.88;;;27.10;46.74
32243;BME280;18731;42.830;24.390;2023-08-31T12:04:12;94204.88;;;26.83;46.70
32243;BME280;18731;42.830;24.390;2023-08-31T12:06:39;94210.34;;;26.96;46.23
32243;BME280;18731;42.830;24.390;2023-08-31T12:09:06;94212.75;;;26.94;46.52
32243;BME280;18731;42.830;24.390;2023-08-31T12:11:32;94214.97;;;26.99;46.35
32243;BME280;18731;42.830;24.390;2023-08-31T12:14:02;94215.94;;;27.05;46.98
32243;BME280;18731;42.830;24.390;2023-08-31T12:16:34;94202.69;;;27.50;46.95
32243;BME280;18731;42.830;24.390;2023-08-31T12:19:03;94212.63;;;27.70;45.44
32243;BME280;18731;42.830;24.390;2023-08-31T12:21:31;94203.63;;;27.69;44.51
32243;BME280;18731;42.830;24.390;2023-08-31T12:23:58;94205.88;;;28.05;44.34
32243;BME280;18731;42.830;24.390;2023-08-31T12:26:24;94203.19;;;28.14;42.93
32243;BME280;18731;42.830;24.390;2023-08-31T12:28:50;94206.84;;;28.11;42.87
32243;BME280;18731;42.830;24.390;2023-08-31T12:31:16;94201.81;;;28.10;42.26
32243;BME280;18731;42.830;24.390;2023-08-31T12:33:41;94196.94;;;28.36;42.32
32243;BME280;18731;42.830;24.390;2023-08-31T12:36:07;94197.44;;;28.65;41.28
32243;BME280;18731;42.830;24.390;2023-08-31T12:38:33;94208.13;;;28.72;40.36
32243;BME280;18731;42.830;24.390;2023-08-31T12:40:58;94209.97;;;28.75;40.29
32243;BME280;18731;42.830;24.390;2023-08-31T12:43:24;94213.09;;;28.87;37.48
32243;BME280;18731;42.830;24.390;2023-08-31T12:45:50;94209.31;;;28.62;38.06
32243;BME280;18731;42.830;24.390;2023-08-31T12:48:16;94209.78;;;28.39;38.15
32243;BME280;18731;42.830;24.390;2023-08-31T12:50:41;94214.94;;;28.37;39.27
32243;BME280;18731;42.830;24.390;2023-08-31T12:53:07;94208.28;;;28.47;39.00
32243;BME280;18731;42.830;24.390;2023-08-31T12:55:32;94217.22;;;28.60;37.64
32243;BME280;18731;42.830;24.390;2023-08-31T12:57:58;94216.84;;;28.49;37.87
32243;BME280;18731;42.830;24.390;2023-08-31T13:00:23;94198.22;;;28.44;36.93
32243;BME280;18731;42.830;24.390;2023-08-31T13:02:50;94205.38;;;28.41;37.92
32243;BME280;18731;42.830;24.390;2023-08-31T13:05:16;94206.13;;;28.42;36.79
32243;BME280;18731;42.830;24.390;2023-08-31T13:07:41;94217.03;;;28.11;36.88
32243;BME280;18731;42.830;24.390;2023-08-31T13:10:07;94219.03;;;28.10;36.72
32243;BME280;18731;42.830;24.390;2023-08-31T13:12:33;94216.47;;;28.16;37.40
32243;BME280;18731;42.830;24.390;2023-08-31T13:15:00;94212.25;;;28.46;37.77
32243;BME280;18731;42.830;24.390;2023-08-31T13:17:26;94214.00;;;28.84;37.99
32243;BME280;18731;42.830;24.390;2023-08-31T13:19:56;94217.59;;;28.71;37.35
32243;BME280;18731;42.830;24.390;2023-08-31T13:22:25;94213.09;;;28.87;36.65
32243;BME280;18731;42.830;24.390;2023-08-31T13:24:51;94208.13;;;28.72;37.07
32243;BME280;18731;42.830;24.390;2023-08-31T13:27:17;94213.09;;;28.87;36.41
32243;BME280;18731;42.830;24.390;2023-08-31T13:29:43;94209.53;;;29.17;37.29
32243;BME280;18731;42.830;24.390;2023-08-31T13:32:09;94203.81;;;29.42;35.87
32243;BME280;18731;42.830;24.390;2023-08-31T13:34:35;94208.25;;;29.58;35.54
32243;BME280;18731;42.830;24.390;2023-08-31T13:37:04;94205.34;;;29.80;35.44
32243;BME280;18731;42.830;24.390;2023-08-31T13:39:30;94200.78;;;30.14;35.49
32243;BME280;18731;42.830;24.390;2023-08-31T13:41:56;94183.06;;;30.05;34.81
32243;BME280;18731;42.830;24.390;2023-08-31T13:44:22;94214.84;;;30.06;35.51
32243;BME280;18731;42.830;24.390;2023-08-31T13:46:49;94214.41;;;30.08;36.06
32243;BME280;18731;42.830;24.390;2023-08-31T13:49:15;94201.06;;;30.25;35.48
32243;BME280;18731;42.830;24.390;2023-08-31T13:51:41;94207.19;;;30.29;35.49
32243;BME280;18731;42.830;24.390;2023-08-31T13:54:07;94203.50;;;30.32;35.01
32243;BME280;18731;42.830;24.390;2023-08-31T13:56:33;94207.47;;;30.40;34.71
32243;BME280;18731;42.830;24.390;2023-08-31T13:58:59;94210.22;;;30.40;34.61
32243;BME280;18731;42.830;24.390;2023-08-31T14:01:25;94204.53;;;30.44;35.19
32243;BME280;18731;42.830;24.390;2023-08-31T14:03:51;94199.84;;;30.26;35.30
32243;BME280;18731;42.830;24.390;2023-08-31T14:06:17;94203.81;;;30.25;34.82
32243;BME280;18731;42.830;24.390;2023-08-31T14:08:42;94208.56;;;30.15;34.61
32243;BME280;18731;42.830;24.390;2023-08-31T14:11:08;94201.06;;;29.88;34.39
32243;BME280;18731;42.830;24.390;2023-08-31T14:13:34;94216.66;;;29.46;35.05
32243;BME280;18731;42.830;24.390;2023-08-31T14:15:59;94217.97;;;29.41;36.11
32243;BME280;18731;42.830;24.390;2023-08-31T14:18:28;94220.25;;;29.24;37.12
32243;BME280;18731;42.830;24.390;2023-08-31T14:20:55;94206.22;;;29.40;36.67
32243;BME280;18731;42.830;24.390;2023-08-31T14:23:21;94216.97;;;29.75;36.08
32243;BME280;18731;42.830;24.390;2023-08-31T14:25:47;94217.00;;;30.02;36.44
32243;BME280;18731;42.830;24.390;2023-08-31T14:28:13;94217.59;;;30.25;34.45
32243;BME280;18731;42.830;24.390;2023-08-31T14:30:38;94211.75;;;30.32;34.83
32243;BME280;18731;42.830;24.390;2023-08-31T14:33:04;94220.19;;;30.19;35.24
32243;BME280;18731;42.830;24.390;2023-08-31T14:35:30;94221.25;;;29.94;35.69
32243;BME280;18731;42.830;24.390;2023-08-31T14:37:56;94224.91;;;30.00;35.36
32243;BME280;18731;42.830;24.390;2023-08-31T14:40:23;94225.38;;;29.90;35.03
32243;BME280;18731;42.830;24.390;2023-08-31T14:42:48;94219.28;;;29.86;35.04
32243;BME280;18731;42.830;24.390;2023-08-31T14:45:14;94219.41;;;29.82;34.56
32243;BME280;18731;42.830;24.390;2023-08-31T14:47:40;94230.41;;;29.64;35.02
32243;BME280;18731;42.830;24.390;2023-08-31T14:50:06;94215.41;;;29.47;36.39
32243;BME280;18731;42.830;24.390;2023-08-31T14:52:32;94230.56;;;29.51;35.88
32243;BME280;18731;42.830;24.390;2023-08-31T14:54:58;94227.94;;;29.48;34.97
32243;BME280;18731;42.830;24.390;2023-08-31T14:57:23;94234.66;;;29.47;36.73
32243;BME280;18731;42.830;24.390;2023-08-31T14:59:49;94210.16;;;29.21;36.34
32243;BME280;18731;42.830;24.390;2023-08-31T15:02:19;94216.56;;;29.18;35.79
32243;BME280;18731;42.830;24.390;2023-08-31T15:04:48;94220.00;;;28.91;36.20
32243;BME280;18731;42.830;24.390;2023-08-31T15:07:15;94220.06;;;28.78;36.83
32243;BME280;18731;42.830;24.390;2023-08-31T15:09:42;94227.50;;;28.69;37.66
32243;BME280;18731;42.830;24.390;2023-08-31T15:12:08;94215.13;;;28.64;36.91
32243;BME280;18731;42.830;24.390;2023-08-31T15:14:33;94221.06;;;28.41;37.68
32243;BME280;18731;42.830;24.390;2023-08-31T15:16:59;94222.09;;;28.34;37.66
32243;BME280;18731;42.830;24.390;2023-08-31T15:19:24;94232.31;;;28.34;38.27
32243;BME280;18731;42.830;24.390;2023-08-31T15:21:50;94222.88;;;28.35;38.66
32243;BME280;18731;42.830;24.390;2023-08-31T15:24:16;94227.72;;;28.31;38.04
32243;BME280;18731;42.830;24.390;2023-08-31T15:26:41;94226.81;;;28.12;37.74
32243;BME280;18731;42.830;24.390;2023-08-31T15:29:08;94225.41;;;28.07;37.86
32243;BME280;18731;42.830;24.390;2023-08-31T15:31:34;94224.34;;;27.70;38.51
32243;BME280;18731;42.830;24.390;2023-08-31T15:34:00;94221.09;;;27.63;39.59
32243;BME280;18731;42.830;24.390;2023-08-31T15:36:25;94223.84;;;27.63;41.54
32243;BME280;18731;42.830;24.390;2023-08-31T15:38:51;94218.28;;;27.41;44.22
32243;BME280;18731;42.830;24.390;2023-08-31T15:41:16;94229.59;;;27.30;46.25
32243;BME280;18731;42.830;24.390;2023-08-31T15:43:42;94232.03;;;27.15;42.45
32243;BME280;18731;42.830;24.390;2023-08-31T15:46:08;94237.28;;;27.10;43.60
32243;BME280;18731;42.830;24.390;2023-08-31T15:48:33;94237.06;;;26.91;43.87
32243;BME280;18731;42.830;24.390;2023-08-31T15:50:59;94237.50;;;26.77;44.59
32243;BME280;18731;42.830;24.390;2023-08-31T15:53:25;94245.56;;;26.43;45.59
32243;BME280;18731;42.830;24.390;2023-08-31T15:55:53;94251.44;;;26.28;46.61
32243;BME280;18731;42.830;24.390;2023-08-31T15:58:18;94248.78;;;26.25;48.47